createdAt,value
2022-12-28T00:03:35.373Z,4.14
2022-12-28T00:08:35.322Z,4.13
2022-12-28T00:13:35.299Z,4.14
2022-12-28T00:18:35.261Z,4.16
2022-12-28T00:23:35.223Z,4.16
2022-12-28T00:28:35.188Z,4.16
2022-12-28T00:33:35.164Z,4.16
2022-12-28T00:38:35.139Z,4.04
2022-12-28T00:43:35.108Z,4.00
2022-12-28T00:48:35.061Z,3.96
2022-12-28T00:53:35.030Z,3.82
2022-12-28T00:58:35.007Z,3.81
2022-12-28T01:03:35.038Z,3.72
2022-12-28T01:08:34.941Z,3.63
2022-12-28T01:13:34.907Z,3.59
2022-12-28T01:18:34.876Z,3.59
2022-12-28T01:23:34.874Z,3.49
2022-12-28T01:28:34.811Z,3.56
2022-12-28T01:33:34.778Z,3.64
2022-12-28T01:38:34.730Z,3.67
2022-12-28T01:43:34.737Z,3.59
2022-12-28T01:48:34.662Z,3.59
2022-12-28T01:53:34.789Z,3.60
2022-12-28T01:58:34.617Z,3.62
2022-12-28T02:03:34.569Z,3.57
2022-12-28T02:08:34.536Z,3.49
2022-12-28T02:13:34.500Z,3.44
2022-12-28T02:18:34.465Z,3.42
2022-12-28T02:23:34.440Z,3.35
2022-12-28T02:28:34.392Z,3.39
2022-12-28T02:33:34.353Z,3.39
2022-12-28T02:38:34.323Z,3.35
2022-12-28T02:43:34.293Z,3.35
2022-12-28T02:48:34.265Z,3.28
2022-12-28T02:53:34.253Z,3.25
2022-12-28T02:58:34.257Z,3.20
2022-12-28T03:03:34.213Z,3.25
2022-12-28T03:08:34.177Z,3.26
2022-12-28T03:13:34.132Z,3.31
2022-12-28T03:18:34.080Z,3.28
2022-12-28T03:23:34.110Z,3.22
2022-12-28T03:28:34.036Z,3.20
2022-12-28T03:33:34.017Z,3.17
2022-12-28T03:38:33.980Z,3.13
2022-12-28T03:43:33.978Z,3.10
2022-12-28T03:48:33.927Z,3.17
2022-12-28T03:53:33.922Z,3.22
2022-12-28T03:58:33.874Z,3.19
2022-12-28T04:03:33.922Z,3.17
2022-12-28T04:08:33.829Z,3.22
2022-12-28T04:13:33.856Z,3.26
2022-12-28T04:18:33.775Z,3.31
2022-12-28T04:23:33.775Z,3.34
2022-12-28T04:28:33.727Z,3.35
2022-12-28T04:33:33.728Z,3.37
2022-12-28T04:38:33.714Z,3.31
2022-12-28T04:43:33.707Z,3.33
2022-12-28T04:48:33.650Z,3.34
2022-12-28T04:53:33.643Z,3.39
2022-12-28T04:58:33.608Z,3.41
2022-12-28T05:03:33.581Z,3.54
2022-12-28T05:08:33.586Z,3.54
2022-12-28T05:13:33.564Z,3.56
2022-12-28T05:18:33.540Z,3.59
2022-12-28T05:23:33.531Z,3.70
2022-12-28T05:28:33.477Z,3.74
2022-12-28T05:33:33.474Z,3.75
2022-12-28T05:38:33.448Z,3.78
2022-12-28T05:43:33.443Z,3.82
2022-12-28T05:48:33.434Z,3.89
2022-12-28T05:53:33.430Z,3.86
2022-12-28T05:58:33.411Z,3.72
2022-12-28T06:03:33.556Z,3.64
2022-12-28T06:08:33.374Z,3.59
2022-12-28T06:13:33.371Z,3.56
2022-12-28T06:18:33.320Z,3.57
2022-12-28T06:23:33.266Z,3.59
2022-12-28T06:28:33.251Z,3.50
2022-12-28T06:33:33.232Z,3.44
2022-12-28T06:38:33.195Z,3.42
2022-12-28T06:43:33.189Z,3.46
2022-12-28T06:48:33.164Z,3.45
2022-12-28T06:53:33.122Z,3.46
2022-12-28T06:58:33.083Z,3.50
2022-12-28T07:03:33.082Z,3.49
2022-12-28T07:08:33.044Z,3.50
2022-12-28T07:13:33.027Z,3.54
2022-12-28T07:18:33.009Z,3.57
2022-12-28T07:23:32.965Z,3.60
2022-12-28T07:28:32.916Z,3.67
2022-12-28T07:33:32.877Z,3.71
2022-12-28T07:38:32.833Z,3.74
2022-12-28T07:43:32.798Z,3.84
2022-12-28T07:48:32.800Z,3.86
2022-12-28T07:53:32.722Z,3.86
2022-12-28T07:58:32.706Z,3.93
2022-12-28T08:03:32.740Z,3.96
2022-12-28T08:08:32.656Z,3.99
2022-12-28T08:13:32.601Z,4.08
2022-12-28T08:18:32.560Z,4.18
2022-12-28T08:23:32.532Z,4.25
2022-12-28T08:28:32.498Z,4.42
2022-12-28T08:33:32.461Z,4.51
2022-12-28T08:38:32.428Z,4.71
2022-12-28T08:43:32.439Z,4.75
2022-12-28T08:48:32.413Z,4.91
2022-12-28T08:53:32.363Z,4.97
2022-12-28T08:58:32.325Z,5.02
2022-12-28T09:03:32.341Z,5.02
2022-12-28T09:08:32.261Z,5.08
2022-12-28T09:13:32.280Z,5.15
2022-12-28T09:18:32.259Z,5.09
2022-12-28T09:23:32.211Z,5.17
2022-12-28T09:28:32.170Z,5.22
2022-12-28T09:33:32.176Z,5.23
2022-12-28T09:38:32.124Z,5.29
2022-12-28T09:43:32.088Z,5.37
2022-12-28T09:48:32.075Z,5.42
2022-12-28T09:53:32.045Z,5.49
2022-12-28T09:58:32.049Z,5.56
2022-12-28T10:03:32.090Z,5.65
2022-12-28T10:08:32.011Z,5.75
2022-12-28T10:18:37.584Z,5.85
2022-12-28T10:23:31.950Z,5.88
2022-12-28T10:28:31.919Z,5.95
2022-12-28T10:33:31.910Z,6.06
2022-12-28T10:38:31.871Z,6.25
2022-12-28T10:43:31.850Z,6.32
2022-12-28T10:48:31.823Z,6.39
2022-12-28T10:53:31.829Z,6.42
2022-12-28T10:58:33.405Z,6.53
2022-12-28T11:03:31.833Z,6.63
2022-12-28T11:08:31.775Z,6.78
2022-12-28T11:13:31.746Z,6.91
2022-12-28T11:18:37.723Z,7.05
2022-12-28T11:23:31.794Z,7.18
2022-12-28T11:28:31.654Z,7.29
2022-12-28T11:33:31.652Z,7.29
2022-12-28T11:38:31.629Z,7.33
2022-12-28T11:43:31.601Z,7.29
2022-12-28T11:48:31.567Z,7.27
2022-12-28T11:53:31.544Z,7.60
2022-12-28T11:58:31.522Z,7.67
2022-12-28T12:03:31.532Z,7.69
2022-12-28T12:08:31.461Z,7.76
2022-12-28T12:13:31.452Z,7.91
2022-12-28T12:18:31.458Z,8.13
2022-12-28T12:23:31.413Z,8.21
2022-12-28T12:28:31.395Z,8.18
2022-12-28T12:33:31.394Z,8.17
2022-12-28T12:38:31.333Z,8.24
2022-12-28T12:43:31.326Z,8.29
2022-12-28T12:48:31.450Z,8.24
2022-12-28T12:53:31.285Z,8.24
2022-12-28T12:58:31.289Z,8.24
2022-12-28T13:03:31.320Z,8.10
2022-12-28T13:08:31.237Z,7.99
2022-12-28T13:13:31.211Z,8.06
2022-12-28T13:18:46.625Z,8.02
2022-12-28T13:23:31.141Z,7.96
2022-12-28T13:28:31.085Z,7.96
2022-12-28T13:33:31.082Z,8.06
2022-12-28T13:38:31.022Z,8.03
2022-12-28T13:43:30.980Z,8.03
2022-12-28T13:48:30.959Z,7.99
2022-12-28T13:53:30.952Z,7.95
2022-12-28T13:58:30.896Z,7.89
2022-12-28T14:03:35.917Z,7.85
2022-12-28T14:08:30.839Z,7.74
2022-12-28T14:13:30.794Z,7.71
2022-12-28T14:18:30.741Z,7.73
2022-12-28T14:23:30.730Z,7.77
2022-12-28T14:28:30.703Z,7.73
2022-12-28T14:33:30.697Z,7.77
2022-12-28T14:38:30.694Z,7.73
2022-12-28T14:43:30.676Z,7.67
2022-12-28T14:48:30.609Z,7.55
2022-12-28T14:53:31.312Z,7.50
2022-12-28T14:58:30.547Z,7.37
2022-12-28T15:03:30.640Z,7.51
2022-12-28T15:08:30.556Z,7.52
2022-12-28T15:13:30.486Z,7.48
2022-12-28T15:18:30.533Z,7.54
2022-12-28T15:23:30.479Z,7.48
2022-12-28T15:28:30.388Z,7.50
2022-12-28T15:33:30.391Z,7.51
2022-12-28T15:38:30.354Z,7.44
2022-12-28T15:43:30.305Z,7.42
2022-12-28T15:48:30.256Z,7.45
2022-12-28T15:53:30.244Z,7.54
2022-12-28T15:58:30.175Z,7.48
2022-12-28T16:03:30.189Z,7.58
2022-12-28T16:08:30.177Z,7.63
2022-12-28T16:13:30.105Z,7.69
2022-12-28T16:18:30.074Z,7.60
2022-12-28T16:23:30.082Z,7.58
2022-12-28T16:28:30.012Z,7.58
2022-12-28T16:33:29.974Z,7.57
2022-12-28T16:38:29.918Z,7.58
2022-12-28T16:43:29.914Z,7.55
2022-12-28T16:48:29.871Z,7.45
2022-12-28T16:53:29.877Z,7.47
2022-12-28T16:58:29.819Z,7.52
2022-12-28T17:03:29.849Z,7.50
2022-12-28T17:08:29.778Z,7.42
2022-12-28T17:13:29.753Z,7.39
2022-12-28T17:18:29.705Z,7.44
2022-12-28T17:23:29.697Z,7.44
2022-12-28T17:28:29.654Z,7.39
2022-12-28T17:33:32.789Z,7.39
2022-12-28T17:38:29.639Z,7.51
2022-12-28T17:43:29.620Z,7.50
2022-12-28T17:48:29.573Z,7.48
2022-12-28T17:53:29.566Z,7.44
2022-12-28T17:58:29.507Z,7.42
2022-12-28T18:03:33.730Z,7.34
2022-12-28T18:08:29.446Z,7.32
2022-12-28T18:13:29.403Z,7.21
2022-12-28T18:18:29.371Z,7.09
2022-12-28T18:23:29.350Z,7.00
2022-12-28T18:28:29.306Z,6.91
2022-12-28T18:33:29.244Z,6.83
2022-12-28T18:38:29.297Z,6.76
2022-12-28T18:43:29.241Z,6.76
2022-12-28T18:48:29.195Z,6.68
2022-12-28T18:53:29.174Z,6.71
2022-12-28T18:58:29.115Z,6.69
2022-12-28T19:03:29.420Z,6.68
2022-12-28T19:08:29.040Z,6.65
2022-12-28T19:13:29.011Z,6.65
2022-12-28T19:18:28.996Z,6.61
2022-12-28T19:23:28.972Z,6.60
2022-12-28T19:28:28.933Z,6.64
2022-12-28T19:33:28.888Z,6.58
2022-12-28T19:38:28.887Z,6.54
2022-12-28T19:43:28.864Z,6.46
2022-12-28T19:48:28.798Z,6.46
2022-12-28T19:53:28.768Z,6.53
2022-12-28T19:58:28.738Z,6.53
2022-12-28T20:03:28.755Z,6.53
2022-12-28T20:08:28.720Z,6.48
2022-12-28T20:13:28.659Z,6.65
2022-12-28T20:18:28.626Z,6.71
2022-12-28T20:23:28.615Z,6.71
2022-12-28T20:28:28.583Z,6.78
2022-12-28T20:33:28.578Z,6.91
2022-12-28T20:38:28.551Z,6.94
2022-12-28T20:43:28.536Z,7.04
2022-12-28T20:48:28.534Z,7.12
2022-12-28T20:53:28.485Z,7.18
2022-12-28T20:58:28.453Z,7.24
2022-12-28T21:03:28.435Z,7.24
2022-12-28T21:08:30.854Z,7.33
2022-12-28T21:13:28.376Z,7.32
2022-12-28T21:18:28.347Z,7.34
2022-12-28T21:23:28.368Z,7.39
2022-12-28T21:28:28.273Z,7.39
2022-12-28T21:33:28.247Z,7.45
2022-12-28T21:38:28.222Z,7.41
2022-12-28T21:43:28.202Z,7.41
2022-12-28T21:48:28.167Z,7.57
2022-12-28T21:53:28.138Z,7.52
2022-12-28T21:58:28.090Z,7.54
2022-12-28T22:03:28.088Z,7.57
2022-12-28T22:08:28.055Z,7.45
2022-12-28T22:13:27.992Z,7.39
2022-12-28T22:23:34.248Z,7.41
2022-12-28T22:28:28.401Z,7.27
2022-12-28T22:33:27.885Z,7.16
2022-12-28T22:38:27.879Z,7.12
2022-12-28T22:43:27.882Z,7.11
2022-12-28T22:48:27.796Z,7.08
2022-12-28T22:53:27.751Z,7.08
2022-12-28T22:58:27.797Z,7.07
2022-12-28T23:03:27.766Z,7.14
2022-12-28T23:08:27.705Z,7.12
2022-12-28T23:13:27.663Z,7.08
2022-12-28T23:18:27.628Z,6.97
2022-12-28T23:23:27.636Z,7.04
2022-12-28T23:28:27.559Z,7.05
2022-12-28T23:33:27.534Z,7.04
2022-12-28T23:38:27.529Z,7.05
2022-12-28T23:43:27.507Z,7.05
2022-12-28T23:48:27.483Z,7.01
2022-12-28T23:53:27.460Z,6.99
2022-12-28T23:58:27.462Z,7.01
